Time;durP1;ratioP1;P1;durP2;ratioP2;P2;SDS_P1;SDS_P2;PMS_P1;PMS_P2;Temp;Humidity;BMP_temperature;BMP_pressure;BME280_temperature;BME280_humidity;BME280_pressure;Samples;Min_cycle;Max_cycle;Signal;HPM_P1;HPM_P2
2022/05/13 00:00:39;;;;;;;;;;;;;;;;;;5019923;28;20635;-63
2022/05/13 00:03:05;;;;;;;;;;;;;;;;;;5001093;28;20403;-63
2022/05/13 00:05:31;;;;;;;;;;;;;;;;;;5003632;28;19917;-63
2022/05/13 00:07:57;;;;;;;;;;;;;;;;;;5019822;28;19928;-63
2022/05/13 00:10:24;;;;;;;;;;;;;;;;;;5005194;28;20341;-63
2022/05/13 00:12:50;;;;;;;;;;;;;;;;;;5002714;28;20242;-63
2022/05/13 00:15:16;;;;;;;;;;;;;;;;;;5001276;28;20409;-63
2022/05/13 00:17:42;;;;;;;;;;;;;;;;;;5018757;28;19917;-63
2022/05/13 00:20:08;;;;;;;;;;;;;;;;;;5023731;28;20273;-63
2022/05/13 00:22:34;;;;;;;;;;;;;;;;;;5027592;28;19954;-63
2022/05/13 00:25:00;;;;;;;;;;;;;;;;;;5023286;28;20607;-63
2022/05/13 00:27:26;;;;;;;;;;;;;;;;;;5007606;28;19917;-63
2022/05/13 00:29:52;;;;;;;;;;;;;;;;;;5022776;28;19971;-63
2022/05/13 00:32:18;;;;;;;;;;;;;;;;;;5008553;28;20011;-63
2022/05/13 00:34:44;;;;;;;;;;;;;;;;;;5022408;28;20346;-64
2022/05/13 00:37:10;;;;;;;;;;;;;;;;;;5010668;28;19921;-63
2022/05/13 00:39:36;;;;;;;;;;;;;;;;;;5026556;28;19944;-63
2022/05/13 00:42:03;;;;;;;;;;;;;;;;;;5004874;28;20456;-63
2022/05/13 00:44:29;;;;;;;;;;;;;;;;;;5021711;28;20485;-63
2022/05/13 00:46:55;;;;;;;;;;;;;;;;;;5021289;28;20098;-63
2022/05/13 00:49:22;;;;;;;;;;;;;;;;;;5027558;28;20296;-63
2022/05/13 00:51:49;;;;;;;;;;;;;;;;;;5021665;28;19967;-63
2022/05/13 00:54:14;;;;;;;;;;;;;;;;;;5008320;28;19920;-63
2022/05/13 00:56:42;;;;;;;;;;;;;;;;;;5023691;28;20377;-63
2022/05/13 00:59:08;;;;;;;;;;;;;;;;;;5023554;28;19913;-63
2022/05/13 01:01:34;;;;;;;;;;;;;;;;;;5025571;28;20354;-63
2022/05/13 01:04:01;;;;;;;;;;;;;;;;;;5020835;28;19924;-63
2022/05/13 01:06:27;;;;;;;;;;;;;;;;;;5007350;28;19917;-63
2022/05/13 01:08:56;;;;;;;;;;;;;;;;;;5004272;28;20025;-63
2022/05/13 01:11:22;;;;;;;;;;;;;;;;;;5022673;28;20375;-62
2022/05/13 01:13:48;;;;;;;;;;;;;;;;;;5005573;28;20104;-63
2022/05/13 01:16:14;;;;;;;;;;;;;;;;;;5026880;28;19995;-63
2022/05/13 01:18:40;;;;;;;;;;;;;;;;;;5026875;28;19917;-63
2022/05/13 01:21:06;;;;;;;;;;;;;;;;;;5003091;28;20363;-63
2022/05/13 01:23:32;;;;;;;;;;;;;;;;;;5024358;28;20561;-63
2022/05/13 01:25:58;;;;;;;;;;;;;;;;;;5005484;28;19920;-63
2022/05/13 01:28:24;;;;;;;;;;;;;;;;;;5025916;28;20319;-63
2022/05/13 01:30:51;;;;;;;;;;;;;;;;;;5023074;28;20241;-63
2022/05/13 01:33:17;;;;;;;;;;;;;;;;;;5025962;28;20298;-63
2022/05/13 01:35:43;;;;;;;;;;;;;;;;;;5005957;28;20451;-63
2022/05/13 01:38:09;;;;;;;;;;;;;;;;;;5023945;28;19924;-63
2022/05/13 01:40:35;;;;;;;;;;;;;;;;;;5020070;28;19916;-63
2022/05/13 01:43:01;;;;;;;;;;;;;;;;;;5019288;28;20245;-63
2022/05/13 01:45:27;;;;;;;;;;;;;;;;;;5023177;28;19990;-63
2022/05/13 01:47:53;;;;;;;;;;;;;;;;;;5022350;28;20706;-65
2022/05/13 01:50:20;;;;;;;;;;;;;;;;;;5007705;28;20000;-65
2022/05/13 01:52:46;;;;;;;;;;;;;;;;;;5018498;28;19916;-65
2022/05/13 01:55:12;;;;;;;;;;;;;;;;;;5025412;28;19927;-62
2022/05/13 01:57:38;;;;;;;;;;;;;;;;;;5025340;28;20270;-63
2022/05/13 02:00:04;;;;;;;;;;;;;;;;;;5002574;28;19921;-63
2022/05/13 02:03:43;;;;;;;;;;;;;;;;;;5024067;28;19917;-63
2022/05/13 02:05:16;;;;;;;;;;;;;;;;;;5024562;28;19939;-63
2022/05/13 02:07:42;;;;;;;;;;;;;;;;;;5020785;28;20438;-63
2022/05/13 02:10:08;;;;;;;;;;;;;;;;;;5024599;28;20531;-63
2022/05/13 02:12:34;;;;;;;;;;;;;;;;;;5023664;28;19917;-63
2022/05/13 02:15:00;;;;;;;;;;;;;;;;;;5022017;28;20559;-63
2022/05/13 02:17:26;;;;;;;;;;;;;;;;;;5009503;28;20007;-63
2022/05/13 02:19:52;;;;;;;;;;;;;;;;;;5002829;28;19921;-63
2022/05/13 02:22:18;;;;;;;;;;;;;;;;;;5023080;28;19924;-63
2022/05/13 02:24:44;;;;;;;;;;;;;;;;;;5023448;28;20434;-64
2022/05/13 02:27:10;;;;;;;;;;;;;;;;;;5004833;28;19925;-63
2022/05/13 02:29:36;;;;;;;;;;;;;;;;;;5019393;28;19917;-62
2022/05/13 02:32:02;;;;;;;;;;;;;;;;;;5002415;28;19917;-63
2022/05/13 02:34:28;;;;;;;;;;;;;;;;;;5023884;28;19920;-63
2022/05/13 02:36:54;;;;;;;;;;;;;;;;;;5017438;28;21184;-62
2022/05/13 02:39:20;;;;;;;;;;;;;;;;;;5005040;28;20260;-62
2022/05/13 02:41:46;;;;;;;;;;;;;;;;;;5018497;28;19956;-62
2022/05/13 02:44:12;;;;;;;;;;;;;;;;;;5006732;28;19925;-62
2022/05/13 02:46:38;;;;;;;;;;;;;;;;;;5023359;28;20417;-63
2022/05/13 02:49:04;;;;;;;;;;;;;;;;;;5019425;28;20701;-63
2022/05/13 02:51:30;;;;;;;;;;;;;;;;;;5023763;28;19913;-62
2022/05/13 02:53:56;;;;;;;;;;;;;;;;;;5020578;28;19923;-63
2022/05/13 02:56:22;;;;;;;;;;;;;;;;;;5019149;28;20422;-63
2022/05/13 02:58:48;;;;;;;;;;;;;;;;;;5017045;28;19924;-63
2022/05/13 03:01:14;;;;;;;;;;;;;;;;;;5022494;28;19916;-62
2022/05/13 03:03:40;;;;;;;;;;;;;;;;;;5023915;28;20427;-63
2022/05/13 03:06:06;;;;;;;;;;;;;;;;;;5021353;28;19917;-63
2022/05/13 03:08:32;;;;;;;;;;;;;;;;;;5021932;28;19928;-63
2022/05/13 03:10:57;;;;;;;;;;;;;;;;;;5019649;28;20424;-63
2022/05/13 03:13:23;;;;;;;;;;;;;;;;;;5024303;28;19920;-63
2022/05/13 03:15:49;;;;;;;;;;;;;;;;;;5020263;28;19967;-63
2022/05/13 03:18:15;;;;;;;;;;;;;;;;;;5024742;28;20031;-63
2022/05/13 03:20:41;;;;;;;;;;;;;;;;;;5005937;28;19917;-63
2022/05/13 03:23:07;;;;;;;;;;;;;;;;;;5019415;28;20462;-63
2022/05/13 03:25:33;;;;;;;;;;;;;;;;;;5023128;28;20023;-63
2022/05/13 03:27:59;;;;;;;;;;;;;;;;;;5019831;28;20022;-62
2022/05/13 03:30:25;;;;;;;;;;;;;;;;;;5022563;28;20492;-65
2022/05/13 03:32:51;;;;;;;;;;;;;;;;;;5021785;28;19921;-65
2022/05/13 03:35:17;;;;;;;;;;;;;;;;;;5019951;28;19927;-63
2022/05/13 03:37:44;;;;;;;;;;;;;;;;;;5022398;28;20366;-63
2022/05/13 03:40:10;;;;;;;;;;;;;;;;;;5023043;28;20560;-62
2022/05/13 03:42:36;;;;;;;;;;;;;;;;;;5027313;28;19912;-62
2022/05/13 03:45:02;;;;;;;;;;;;;;;;;;5019744;28;19966;-62
2022/05/13 03:47:28;;;;;;;;;;;;;;;;;;5022386;28;20012;-62
2022/05/13 03:49:54;;;;;;;;;;;;;;;;;;5020685;28;19920;-63
2022/05/13 03:52:20;;;;;;;;;;;;;;;;;;5020120;28;19932;-62
2022/05/13 03:54:46;;;;;;;;;;;;;;;;;;5014616;28;19921;-63
2022/05/13 03:57:12;;;;;;;;;;;;;;;;;;5029350;28;19916;-63
2022/05/13 03:59:40;;;;;;;;;;;;;;;;;;5028935;28;20551;-65
2022/05/13 04:02:06;;;;;;;;;;;;;;;;;;5004626;28;20363;-64
2022/05/13 04:08:56;;;;;;;;;;;;;;;;;;5010710;28;19917;-65
2022/05/13 04:10:02;;;;;;;;;;;;;;;;;;5024076;28;20022;-65
2022/05/13 04:17:57;;;;;;;;;;;;;;;;;;5022111;28;20373;-65
2022/05/13 04:20:23;;;;;;;;;;;;;;;;;;5023123;28;19916;-64
2022/05/13 04:22:49;;;;;;;;;;;;;;;;;;5004996;28;20231;-64
2022/05/13 04:25:15;;;;;;;;;;;;;;;;;;5002550;28;19917;-66
2022/05/13 04:27:41;;;;;;;;;;;;;;;;;;5016935;28;19917;-63
2022/05/13 04:30:07;;;;;;;;;;;;;;;;;;5018228;28;20535;-63
2022/05/13 04:32:33;;;;;;;;;;;;;;;;;;5020452;28;19917;-63
2022/05/13 04:34:59;;;;;;;;;;;;;;;;;;5001644;28;19924;-63
2022/05/13 04:37:25;;;;;;;;;;;;;;;;;;5017815;28;19962;-63
2022/05/13 04:39:53;;;;;;;;;;;;;;;;;;5014756;28;20434;-63
2022/05/13 04:45:05;;;;;;;;;;;;;;;;;;5017756;28;21030;-63
2022/05/13 04:50:15;;;;;;;;;;;;;;;;;;4987696;28;20720;-63
2022/05/13 04:52:41;;;;;;;;;;;;;;;;;;5011716;28;19943;-63
2022/05/13 04:55:08;;;;;;;;;;;;;;;;;;5037867;28;20458;-63
2022/05/13 04:57:34;;;;;;;;;;;;;;;;;;5017421;28;20465;-63
2022/05/13 05:00:00;;;;;;;;;;;;;;;;;;5024152;28;20005;-63
2022/05/13 05:02:28;;;;;;;;;;;;;;;;;;5039232;28;20006;-63
2022/05/13 05:04:54;;;;;;;;;;;;;;;;;;5038973;28;20317;-63
2022/05/13 05:07:20;;;;;;;;;;;;;;;;;;5019917;28;19966;-63
2022/05/13 05:09:46;;;;;;;;;;;;;;;;;;5036415;28;19925;-63
2022/05/13 05:12:12;;;;;;;;;;;;;;;;;;5045652;28;19917;-63
2022/05/13 05:14:41;;;;;;;;;;;;;;;;;;5038314;28;19942;-64
2022/05/13 05:17:07;;;;;;;;;;;;;;;;;;5023567;28;19917;-64
2022/05/13 05:19:33;;;;;;;;;;;;;;;;;;5046201;28;19973;-63
2022/05/13 05:21:59;;;;;;;;;;;;;;;;;;5021133;28;20044;-63
2022/05/13 05:24:25;;;;;;;;;;;;;;;;;;5041800;28;19916;-63
2022/05/13 05:26:51;;;;;;;;;;;;;;;;;;5002807;28;19920;-66
2022/05/13 05:29:17;;;;;;;;;;;;;;;;;;4989298;28;20280;-66
2022/05/13 05:31:45;;;;;;;;;;;;;;;;;;4997656;28;20506;-65
2022/05/13 05:34:12;;;;;;;;;;;;;;;;;;4990901;28;20355;-68
2022/05/13 05:36:38;;;;;;;;;;;;;;;;;;4985831;28;19920;-66
2022/05/13 05:39:04;;;;;;;;;;;;;;;;;;4989339;28;20985;-66
2022/05/13 05:41:30;;;;;;;;;;;;;;;;;;4973420;28;19917;-65
2022/05/13 05:43:56;;;;;;;;;;;;;;;;;;4981201;28;19928;-65
2022/05/13 05:46:22;;;;;;;;;;;;;;;;;;4996448;28;20083;-67
2022/05/13 05:48:48;;;;;;;;;;;;;;;;;;4974343;28;19921;-67
2022/05/13 05:51:15;;;;;;;;;;;;;;;;;;4969154;28;20373;-66
2022/05/13 05:59:11;;;;;;;;;;;;;;;;;;4984800;28;20005;-65
2022/05/13 06:01:37;;;;;;;;;;;;;;;;;;4988925;28;20400;-66
2022/05/13 06:04:05;;;;;;;;;;;;;;;;;;5027389;28;19959;-67
2022/05/13 06:06:31;;;;;;;;;;;;;;;;;;5031563;28;20029;-67
2022/05/13 06:08:57;;;;;;;;;;;;;;;;;;5034802;28;20035;-66
2022/05/13 06:11:26;;;;;;;;;;;;;;;;;;5024680;28;19917;-67
2022/05/13 06:13:53;;;;;;;;;;;;;;;;;;5042053;28;19931;-64
2022/05/13 06:16:19;;;;;;;;;;;;;;;;;;5039082;28;19927;-65
2022/05/13 06:18:47;;;;;;;;;;;;;;;;;;5042538;28;20298;-65
2022/05/13 06:21:13;;;;;;;;;;;;;;;;;;5053250;28;19971;-65
2022/05/13 06:23:39;;;;;;;;;;;;;;;;;;5022074;28;19920;-65
2022/05/13 06:26:05;;;;;;;;;;;;;;;;;;5040091;28;20327;-63
2022/05/13 06:28:31;;;;;;;;;;;;;;;;;;5038595;28;19917;-63
2022/05/13 06:30:57;;;;;;;;;;;;;;;;;;5013062;28;19993;-63
2022/05/13 06:33:23;;;;;;;;;;;;;;;;;;5045307;28;19963;-64
2022/05/13 06:35:49;;;;;;;;;;;;;;;;;;5026429;28;19921;-64
2022/05/13 06:38:20;;;;;;;;;;;;;;;;;;5024056;28;19958;-64
2022/05/13 06:40:46;;;;;;;;;;;;;;;;;;5014448;28;20332;-63
2022/05/13 06:43:12;;;;;;;;;;;;;;;;;;5021141;28;19916;-63
2022/05/13 06:45:38;;;;;;;;;;;;;;;;;;5039175;28;19916;-63
2022/05/13 06:48:04;;;;;;;;;;;;;;;;;;5039352;28;23800;-63
2022/05/13 06:50:29;;;;;;;;;;;;;;;;;;5034067;28;20282;-63
2022/05/13 06:52:55;;;;;;;;;;;;;;;;;;5033851;28;20453;-63
2022/05/13 06:55:21;;;;;;;;;;;;;;;;;;5020028;28;20019;-63
2022/05/13 06:57:47;;;;;;;;;;;;;;;;;;5034114;28;19975;-63
2022/05/13 07:00:13;;;;;;;;;;;;;;;;;;5038901;28;20390;-63
2022/05/13 07:02:39;;;;;;;;;;;;;;;;;;5037780;28;19913;-63
2022/05/13 07:05:05;;;;;;;;;;;;;;;;;;5032664;28;19917;-63
2022/05/13 07:07:31;;;;;;;;;;;;;;;;;;5039854;28;20385;-63
2022/05/13 07:09:57;;;;;;;;;;;;;;;;;;5040102;28;20011;-63
2022/05/13 07:12:23;;;;;;;;;;;;;;;;;;5041635;28;19920;-63
2022/05/13 07:14:49;;;;;;;;;;;;;;;;;;5036834;28;19931;-63
2022/05/13 07:17:15;;;;;;;;;;;;;;;;;;5025954;28;19962;-63
2022/05/13 07:19:41;;;;;;;;;;;;;;;;;;5035564;28;20331;-63
2022/05/13 07:22:07;;;;;;;;;;;;;;;;;;5040092;28;19920;-63
2022/05/13 07:24:33;;;;;;;;;;;;;;;;;;5044199;28;20176;-63
2022/05/13 07:27:00;;;;;;;;;;;;;;;;;;5032914;28;19920;-63
2022/05/13 07:29:26;;;;;;;;;;;;;;;;;;5042816;28;19935;-63
2022/05/13 07:31:52;;;;;;;;;;;;;;;;;;5034601;28;20370;-63
2022/05/13 07:34:18;;;;;;;;;;;;;;;;;;5017646;28;19969;-63
2022/05/13 07:36:45;;;;;;;;;;;;;;;;;;5016190;28;19923;-63
2022/05/13 07:41:55;;;;;;;;;;;;;;;;;;5030752;28;19923;-63
2022/05/13 07:44:21;;;;;;;;;;;;;;;;;;5015164;28;19917;-63
2022/05/13 07:46:47;;;;;;;;;;;;;;;;;;5023455;28;19939;-63
2022/05/13 07:49:15;;;;;;;;;;;;;;;;;;5032935;28;19927;-63
2022/05/13 07:51:43;;;;;;;;;;;;;;;;;;5035656;28;19963;-63
2022/05/13 07:54:09;;;;;;;;;;;;;;;;;;5035397;28;19925;-65
2022/05/13 07:56:35;;;;;;;;;;;;;;;;;;5016045;28;19917;-64
2022/05/13 07:59:02;;;;;;;;;;;;;;;;;;5033511;28;19923;-63
2022/05/13 08:01:28;;;;;;;;;;;;;;;;;;5035253;28;20480;-63
2022/05/13 08:03:56;;;;;;;;;;;;;;;;;;5034132;28;19917;-63
2022/05/13 08:06:22;;;;;;;;;;;;;;;;;;5038832;28;19975;-63
2022/05/13 08:08:53;;;;;;;;;;;;;;;;;;5031972;28;20015;-63
2022/05/13 08:11:19;;;;;;;;;;;;;;;;;;5043260;28;19927;-63
2022/05/13 08:13:45;;;;;;;;;;;;;;;;;;5034697;28;19971;-63
2022/05/13 08:16:11;;;;;;;;;;;;;;;;;;5035620;28;20366;-63
2022/05/13 08:18:37;;;;;;;;;;;;;;;;;;5035730;28;19920;-63
2022/05/13 08:21:03;;;;;;;;;;;;;;;;;;5018016;28;20386;-63
2022/05/13 08:23:29;;;;;;;;;;;;;;;;;;5019880;28;19923;-63
2022/05/13 08:25:55;;;;;;;;;;;;;;;;;;5036490;28;19963;-63
2022/05/13 08:28:21;;;;;;;;;;;;;;;;;;5035000;28;19920;-63
2022/05/13 08:30:47;;;;;;;;;;;;;;;;;;5032681;28;20468;-63
2022/05/13 08:33:13;;;;;;;;;;;;;;;;;;5024799;28;19917;-63
2022/05/13 08:35:40;;;;;;;;;;;;;;;;;;5035517;28;19971;-63
2022/05/13 08:38:06;;;;;;;;;;;;;;;;;;5039642;28;19928;-63
2022/05/13 08:40:32;;;;;;;;;;;;;;;;;;5024722;28;19912;-63
2022/05/13 08:42:58;;;;;;;;;;;;;;;;;;5034081;28;19955;-63
2022/05/13 08:45:24;;;;;;;;;;;;;;;;;;5041198;28;20046;-65
2022/05/13 08:47:50;;;;;;;;;;;;;;;;;;5035389;28;19917;-63
2022/05/13 08:50:16;;;;;;;;;;;;;;;;;;5039368;28;20130;-63
2022/05/13 08:55:27;;;;;;;;;;;;;;;;;;5033146;28;20044;-63
2022/05/13 08:57:53;;;;;;;;;;;;;;;;;;5017898;28;19917;-63
2022/05/13 09:00:19;;;;;;;;;;;;;;;;;;5042819;28;20324;-63
2022/05/13 09:02:45;;;;;;;;;;;;;;;;;;5042563;28;19916;-63
2022/05/13 09:05:12;;;;;;;;;;;;;;;;;;5045467;28;20054;-63
2022/05/13 09:07:37;;;;;;;;;;;;;;;;;;5040151;28;19920;-63
2022/05/13 09:10:03;;;;;;;;;;;;;;;;;;5041549;28;19975;-63
2022/05/13 09:12:29;;;;;;;;;;;;;;;;;;5043473;28;19923;-63
2022/05/13 09:14:57;;;;;;;;;;;;;;;;;;5034376;28;19997;-64
2022/05/13 09:17:23;;;;;;;;;;;;;;;;;;5027690;28;19921;-63
2022/05/13 09:19:49;;;;;;;;;;;;;;;;;;5042169;28;19921;-65
2022/05/13 09:22:15;;;;;;;;;;;;;;;;;;5045046;28;19923;-65
2022/05/13 09:24:41;;;;;;;;;;;;;;;;;;5040730;28;19924;-65
2022/05/13 09:27:07;;;;;;;;;;;;;;;;;;5035211;28;19917;-64
2022/05/13 09:29:33;;;;;;;;;;;;;;;;;;5043208;28;20537;-64
2022/05/13 09:32:02;;;;;;;;;;;;;;;;;;5033141;28;19917;-65
2022/05/13 09:34:30;;;;;;;;;;;;;;;;;;5020877;28;19998;-63
2022/05/13 09:36:56;;;;;;;;;;;;;;;;;;5050239;28;19916;-63
2022/05/13 09:39:22;;;;;;;;;;;;;;;;;;5042302;28;19916;-63
2022/05/13 09:41:49;;;;;;;;;;;;;;;;;;5019014;28;19920;-65
2022/05/13 09:44:15;;;;;;;;;;;;;;;;;;5040185;28;20110;-65
2022/05/13 09:46:42;;;;;;;;;;;;;;;;;;5042017;28;19916;-64
2022/05/13 09:49:08;;;;;;;;;;;;;;;;;;5022388;28;19917;-64
2022/05/13 09:51:35;;;;;;;;;;;;;;;;;;5036568;28;20370;-64
2022/05/13 09:54:01;;;;;;;;;;;;;;;;;;5032600;28;20325;-64
2022/05/13 09:56:26;;;;;;;;;;;;;;;;;;5017192;28;19986;-64
2022/05/13 09:58:53;;;;;;;;;;;;;;;;;;5035153;28;19916;-64
2022/05/13 10:01:19;;;;;;;;;;;;;;;;;;5044103;28;19927;-65
2022/05/13 10:03:47;;;;;;;;;;;;;;;;;;5043858;28;19916;-65
2022/05/13 10:06:17;;;;;;;;;;;;;;;;;;5045923;28;19917;-65
2022/05/13 10:08:42;;;;;;;;;;;;;;;;;;5044254;28;19978;-64
2022/05/13 10:14:00;;;;;;;;;;;;;;;;;;5032136;28;19924;-65
2022/05/13 10:16:26;;;;;;;;;;;;;;;;;;5041731;28;19978;-65
2022/05/13 10:18:55;;;;;;;;;;;;;;;;;;5019622;28;20443;-65
2022/05/13 10:21:21;;;;;;;;;;;;;;;;;;5042828;28;19920;-65
2022/05/13 10:23:47;;;;;;;;;;;;;;;;;;5035313;28;19916;-65
2022/05/13 10:26:13;;;;;;;;;;;;;;;;;;5040404;28;19920;-63
2022/05/13 10:28:39;;;;;;;;;;;;;;;;;;5040390;28;19940;-64
2022/05/13 10:31:05;;;;;;;;;;;;;;;;;;5035050;28;21330;-64
2022/05/13 10:33:31;;;;;;;;;;;;;;;;;;5019900;28;19999;-64
2022/05/13 10:35:58;;;;;;;;;;;;;;;;;;5030415;28;19921;-64
2022/05/13 10:38:24;;;;;;;;;;;;;;;;;;5021174;28;19974;-64
2022/05/13 10:40:50;;;;;;;;;;;;;;;;;;5041705;28;19916;-64
2022/05/13 10:43:16;;;;;;;;;;;;;;;;;;5039724;28;19917;-64
2022/05/13 10:45:42;;;;;;;;;;;;;;;;;;5020678;28;20023;-64
2022/05/13 10:48:11;;;;;;;;;;;;;;;;;;5038227;28;19921;-66
2022/05/13 10:50:37;;;;;;;;;;;;;;;;;;5037864;28;20244;-64
2022/05/13 10:53:03;;;;;;;;;;;;;;;;;;5034624;28;19923;-63
2022/05/13 10:55:29;;;;;;;;;;;;;;;;;;5024259;28;20381;-66
2022/05/13 10:57:55;;;;;;;;;;;;;;;;;;5017750;28;20432;-64
2022/05/13 11:00:21;;;;;;;;;;;;;;;;;;5018129;28;19913;-64
2022/05/13 11:02:47;;;;;;;;;;;;;;;;;;5017653;28;19916;-64
2022/05/13 11:05:13;;;;;;;;;;;;;;;;;;5021555;28;20298;-64
2022/05/13 11:07:39;;;;;;;;;;;;;;;;;;5039801;28;20396;-64
2022/05/13 11:10:08;;;;;;;;;;;;;;;;;;5015987;28;20006;-64
2022/05/13 11:12:34;;;;;;;;;;;;;;;;;;5010474;28;20200;-65
2022/05/13 11:15:00;;;;;;;;;;;;;;;;;;5009003;28;20218;-64
2022/05/13 11:17:26;;;;;;;;;;;;;;;;;;5036731;28;19916;-64
2022/05/13 11:19:52;;;;;;;;;;;;;;;;;;5029001;28;19959;-64
2022/05/13 11:22:18;;;;;;;;;;;;;;;;;;5033490;28;20381;-64
2022/05/13 11:27:28;;;;;;;;;;;;;;;;;;5028193;28;19951;-64
2022/05/13 11:29:54;;;;;;;;;;;;;;;;;;5028450;28;19923;-64
2022/05/13 11:32:20;;;;;;;;;;;;;;;;;;5014027;28;19917;-64
2022/05/13 11:34:47;;;;;;;;;;;;;;;;;;5029644;28;19956;-64
2022/05/13 11:37:15;;;;;;;;;;;;;;;;;;5016732;28;20015;-64
2022/05/13 11:39:41;;;;;;;;;;;;;;;;;;5012193;28;20554;-65
2022/05/13 11:42:07;;;;;;;;;;;;;;;;;;5044620;28;20557;-64
2022/05/13 11:44:33;;;;;;;;;;;;;;;;;;5018527;28;19921;-64
2022/05/13 11:46:59;;;;;;;;;;;;;;;;;;5022714;28;19917;-64
2022/05/13 11:49:25;;;;;;;;;;;;;;;;;;5033340;28;20166;-65
2022/05/13 11:51:51;;;;;;;;;;;;;;;;;;5031558;28;19923;-64
2022/05/13 11:54:17;;;;;;;;;;;;;;;;;;5031318;28;19917;-65
2022/05/13 11:56:46;;;;;;;;;;;;;;;;;;5051597;28;19973;-64
2022/05/13 11:59:12;;;;;;;;;;;;;;;;;;5033762;28;19916;-63
2022/05/13 12:01:38;;;;;;;;;;;;;;;;;;5017312;28;19923;-63
2022/05/13 12:04:04;;;;;;;;;;;;;;;;;;5031293;28;19921;-63
2022/05/13 12:06:30;;;;;;;;;;;;;;;;;;5040487;28;19917;-63
2022/05/13 12:08:57;;;;;;;;;;;;;;;;;;5033282;28;20265;-65
2022/05/13 12:11:23;;;;;;;;;;;;;;;;;;5035024;28;20019;-64
2022/05/13 12:13:49;;;;;;;;;;;;;;;;;;5028715;28;19916;-64
2022/05/13 12:16:15;;;;;;;;;;;;;;;;;;5037615;28;19920;-65
2022/05/13 12:18:41;;;;;;;;;;;;;;;;;;5046718;28;20340;-65
2022/05/13 12:21:07;;;;;;;;;;;;;;;;;;5038037;28;19923;-64
2022/05/13 12:23:33;;;;;;;;;;;;;;;;;;5034485;28;20485;-64
2022/05/13 12:25:59;;;;;;;;;;;;;;;;;;5041588;28;19922;-66
2022/05/13 12:28:28;;;;;;;;;;;;;;;;;;5041626;28;19999;-65
2022/05/13 12:30:54;;;;;;;;;;;;;;;;;;5042055;28;19920;-64
2022/05/13 12:33:20;;;;;;;;;;;;;;;;;;5048920;28;20394;-65
2022/05/13 12:38:33;;;;;;;;;;;;;;;;;;5037331;28;20349;-64
2022/05/13 12:41:00;;;;;;;;;;;;;;;;;;5016149;28;20362;-64
2022/05/13 12:43:26;;;;;;;;;;;;;;;;;;5032154;28;19920;-64
2022/05/13 12:45:52;;;;;;;;;;;;;;;;;;5015595;28;19916;-64
2022/05/13 12:48:18;;;;;;;;;;;;;;;;;;5039003;28;19924;-64
2022/05/13 12:50:44;;;;;;;;;;;;;;;;;;5017530;28;20227;-64
2022/05/13 12:53:10;;;;;;;;;;;;;;;;;;5051062;28;20539;-64
2022/05/13 12:55:37;;;;;;;;;;;;;;;;;;5018121;28;19925;-64
2022/05/13 12:58:03;;;;;;;;;;;;;;;;;;5015387;28;20014;-65
2022/05/13 13:00:29;;;;;;;;;;;;;;;;;;5040913;28;19917;-64
2022/05/13 13:02:55;;;;;;;;;;;;;;;;;;5039911;28;19916;-65
2022/05/13 13:05:21;;;;;;;;;;;;;;;;;;5044281;28;20278;-64
2022/05/13 13:07:47;;;;;;;;;;;;;;;;;;5034749;28;19920;-65
2022/05/13 13:10:13;;;;;;;;;;;;;;;;;;5047705;28;19928;-64
2022/05/13 13:12:39;;;;;;;;;;;;;;;;;;5036477;28;20358;-63
2022/05/13 13:15:05;;;;;;;;;;;;;;;;;;5036737;28;19925;-63
2022/05/13 13:17:31;;;;;;;;;;;;;;;;;;5022566;28;19916;-64
2022/05/13 13:19:57;;;;;;;;;;;;;;;;;;5016372;28;19924;-64
2022/05/13 13:22:23;;;;;;;;;;;;;;;;;;5018345;28;19917;-64
2022/05/13 13:24:49;;;;;;;;;;;;;;;;;;5035031;28;19920;-64
2022/05/13 13:27:15;;;;;;;;;;;;;;;;;;5017778;28;20439;-65
2022/05/13 13:29:41;;;;;;;;;;;;;;;;;;5036956;28;19925;-64
2022/05/13 13:32:07;;;;;;;;;;;;;;;;;;5021633;28;19940;-65
2022/05/13 13:34:33;;;;;;;;;;;;;;;;;;5015733;28;19921;-64
2022/05/13 13:36:59;;;;;;;;;;;;;;;;;;5027166;28;19916;-64
2022/05/13 13:39:25;;;;;;;;;;;;;;;;;;5033753;28;19968;-64
2022/05/13 13:41:51;;;;;;;;;;;;;;;;;;5037597;28;20007;-64
2022/05/13 13:44:17;;;;;;;;;;;;;;;;;;5038892;28;19917;-64
2022/05/13 13:46:43;;;;;;;;;;;;;;;;;;5038215;28;20498;-64
2022/05/13 13:49:11;;;;;;;;;;;;;;;;;;5035156;28;19920;-64
2022/05/13 13:51:37;;;;;;;;;;;;;;;;;;5040947;28;19973;-65
2022/05/13 13:54:03;;;;;;;;;;;;;;;;;;5032294;28;20251;-65
2022/05/13 13:56:29;;;;;;;;;;;;;;;;;;5036268;28;19920;-64
2022/05/13 13:58:55;;;;;;;;;;;;;;;;;;5037429;28;20122;-64
2022/05/13 14:01:21;;;;;;;;;;;;;;;;;;5032704;28;19928;-65
2022/05/13 14:03:49;;;;;;;;;;;;;;;;;;5016768;28;19917;-65
2022/05/13 14:06:15;;;;;;;;;;;;;;;;;;5030656;28;20023;-64
2022/05/13 14:08:41;;;;;;;;;;;;;;;;;;5017518;28;19927;-65
2022/05/13 14:11:07;;;;;;;;;;;;;;;;;;5014602;28;19917;-65
2022/05/13 14:13:36;;;;;;;;;;;;;;;;;;5017173;28;19917;-65
2022/05/13 14:16:02;;;;;;;;;;;;;;;;;;5017472;28;20746;-64
2022/05/13 14:18:28;;;;;;;;;;;;;;;;;;5020687;28;19924;-65
2022/05/13 14:20:54;;;;;;;;;;;;;;;;;;5015403;28;19920;-65
2022/05/13 14:23:20;;;;;;;;;;;;;;;;;;5012890;28;19924;-65
2022/05/13 14:25:48;;;;;;;;;;;;;;;;;;5013979;28;20797;-65
2022/05/13 14:28:14;;;;;;;;;;;;;;;;;;5016945;28;19921;-64
2022/05/13 14:30:40;;;;;;;;;;;;;;;;;;5014566;28;20403;-67
2022/05/13 14:33:06;;;;;;;;;;;;;;;;;;5019897;28;20460;-65
2022/05/13 14:35:32;;;;;;;;;;;;;;;;;;5014080;28;20125;-65
2022/05/13 14:37:58;;;;;;;;;;;;;;;;;;5010826;28;20023;-65
2022/05/13 14:40:25;;;;;;;;;;;;;;;;;;5019339;28;20031;-66
2022/05/13 14:42:51;;;;;;;;;;;;;;;;;;5011421;28;19948;-66
2022/05/13 14:45:18;;;;;;;;;;;;;;;;;;5018023;28;20347;-65
2022/05/13 14:47:45;;;;;;;;;;;;;;;;;;5000594;28;20156;-66
2022/05/13 14:50:11;;;;;;;;;;;;;;;;;;5008951;28;19924;-66
2022/05/13 14:52:38;;;;;;;;;;;;;;;;;;5011371;28;20007;-64
2022/05/13 14:55:07;;;;;;;;;;;;;;;;;;5007379;28;21826;-65
2022/05/13 14:57:38;;;;;;;;;;;;;;;;;;5015966;28;20344;-65
2022/05/13 15:00:04;;;;;;;;;;;;;;;;;;5013309;28;20681;-65
2022/05/13 15:02:31;;;;;;;;;;;;;;;;;;5017146;28;20451;-66
2022/05/13 15:04:57;;;;;;;;;;;;;;;;;;5012124;28;20472;-66
2022/05/13 15:07:23;;;;;;;;;;;;;;;;;;5015587;28;19923;-67
2022/05/13 15:09:52;;;;;;;;;;;;;;;;;;5035881;28;19928;-65
2022/05/13 15:12:18;;;;;;;;;;;;;;;;;;5021522;28;20504;-64
2022/05/13 15:14:44;;;;;;;;;;;;;;;;;;5019763;28;19920;-66
2022/05/13 15:17:10;;;;;;;;;;;;;;;;;;5032347;28;19916;-66
2022/05/13 15:19:38;;;;;;;;;;;;;;;;;;5032540;28;19969;-65
2022/05/13 15:22:04;;;;;;;;;;;;;;;;;;5035054;28;19927;-67
2022/05/13 15:24:33;;;;;;;;;;;;;;;;;;5013109;28;19913;-67
2022/05/13 15:26:59;;;;;;;;;;;;;;;;;;5033952;28;20271;-67
2022/05/13 15:29:25;;;;;;;;;;;;;;;;;;5037911;28;19967;-68
2022/05/13 15:31:51;;;;;;;;;;;;;;;;;;5033555;28;19917;-68
2022/05/13 15:34:17;;;;;;;;;;;;;;;;;;5043122;28;19924;-68
2022/05/13 15:36:43;;;;;;;;;;;;;;;;;;5029099;28;20796;-67
2022/05/13 15:39:09;;;;;;;;;;;;;;;;;;5016167;28;20011;-67
2022/05/13 15:41:35;;;;;;;;;;;;;;;;;;5016653;28;19916;-68
2022/05/13 15:44:01;;;;;;;;;;;;;;;;;;5015324;28;20344;-67
2022/05/13 15:46:28;;;;;;;;;;;;;;;;;;5013697;28;19917;-67
2022/05/13 15:48:54;;;;;;;;;;;;;;;;;;5014160;28;20243;-68
2022/05/13 15:54:18;;;;;;;;;;;;;;;;;;4986783;28;19918;-66
2022/05/13 15:56:44;;;;;;;;;;;;;;;;;;4988670;28;20328;-67
2022/05/13 15:59:11;;;;;;;;;;;;;;;;;;4971899;28;19958;-66
2022/05/13 16:01:37;;;;;;;;;;;;;;;;;;4975260;28;19917;-67
2022/05/13 16:04:03;;;;;;;;;;;;;;;;;;4995959;28;20447;-67
2022/05/13 16:06:33;;;;;;;;;;;;;;;;;;4979388;28;19921;-67
2022/05/13 16:08:59;;;;;;;;;;;;;;;;;;4972216;28;19957;-67
2022/05/13 16:11:25;;;;;;;;;;;;;;;;;;4989739;28;20040;-68
2022/05/13 16:13:52;;;;;;;;;;;;;;;;;;4989357;28;20357;-67
2022/05/13 16:16:18;;;;;;;;;;;;;;;;;;4989210;28;20071;-68
2022/05/13 16:18:44;;;;;;;;;;;;;;;;;;4989731;28;20032;-67
2022/05/13 16:21:10;;;;;;;;;;;;;;;;;;4993433;28;20193;-67
2022/05/13 16:23:36;;;;;;;;;;;;;;;;;;4992811;28;20009;-67
2022/05/13 16:26:02;;;;;;;;;;;;;;;;;;4984236;28;19940;-68
2022/05/13 16:28:28;;;;;;;;;;;;;;;;;;4971029;28;19929;-67
2022/05/13 16:30:55;;;;;;;;;;;;;;;;;;5012018;28;19924;-66
2022/05/13 16:33:21;;;;;;;;;;;;;;;;;;5021205;28;20139;-68
2022/05/13 16:35:47;;;;;;;;;;;;;;;;;;5002814;28;19975;-66
2022/05/13 16:38:14;;;;;;;;;;;;;;;;;;5015200;28;20298;-66
2022/05/13 16:40:40;;;;;;;;;;;;;;;;;;5016439;28;19968;-66
2022/05/13 16:43:06;;;;;;;;;;;;;;;;;;5009294;28;20007;-66
2022/05/13 16:45:32;;;;;;;;;;;;;;;;;;5013389;28;19921;-67
2022/05/13 16:47:58;;;;;;;;;;;;;;;;;;5012113;28;20055;-66
2022/05/13 16:50:24;;;;;;;;;;;;;;;;;;5015761;28;19921;-66
2022/05/13 16:52:50;;;;;;;;;;;;;;;;;;5015858;28;20341;-66
2022/05/13 16:55:16;;;;;;;;;;;;;;;;;;5012833;28;19920;-66
2022/05/13 16:57:42;;;;;;;;;;;;;;;;;;5017631;28;20397;-66
2022/05/13 17:00:08;;;;;;;;;;;;;;;;;;5014711;28;19963;-66
2022/05/13 17:02:34;;;;;;;;;;;;;;;;;;5018068;28;19916;-66
2022/05/13 17:05:00;;;;;;;;;;;;;;;;;;5013660;28;19959;-66
2022/05/13 17:07:26;;;;;;;;;;;;;;;;;;5019685;28;20716;-66
2022/05/13 17:18:06;;;;;;;;;;;;;;;;;;5033336;28;19959;-67
2022/05/13 17:20:32;;;;;;;;;;;;;;;;;;5038867;28;19916;-66
2022/05/13 17:22:58;;;;;;;;;;;;;;;;;;5032609;28;20301;-68